Language: 


Des rapports , des résumés tant et plus, au choix de chacun....


Données statistiques de la station
Quotidien Rapport Janvier 1, 2017 Unités:  Anglais    Métrique   les deux
« Précédent Jour
Suivant Jour »
Quotidien Hebdomadaire Mensuel Annuel Actuel
  Haut: Bas: Moyen:
Température: 34 °F 27 °F 30.4 °F
Pt de rosée: 33.4 °F 26.4 °F 30 °F
Humidité: 98 % 98 % 98 %
Vitesse du vent: 10.3 mph 0 mph 5.1 mph
Rafales: 13 mph - -
Vent:- - South
Pression: 30.3 in 30 in -
Précipitation: 0 in    
Historical Graphs
 
 
Données statistiques pour Janvier 1, 2017
Heure Température Point de rosée Pression Vent Vitesse du vent Refales Humidité Pluie (taux horaire)
00:00 30.2 °F 29.7 °F 30.3 in SSE 3.8 mph 5.4 mph 98 % 0 in
00:09 30.2 °F 29.7 °F 30.3 in SSE 3.4 mph 5.6 mph 98 % 0 in
00:19 30 °F 29.7 °F 30.3 in SSE 5.8 mph 7.4 mph 98 % 0 in
00:29 29.8 °F 29.5 °F 30.3 in SSE 3.6 mph 6 mph 98 % 0 in
00:39 29.8 °F 29.5 °F 30.3 in SSE 4.7 mph 5.4 mph 98 % 0 in
00:49 29.7 °F 29.1 °F 30.3 in SSE 4.7 mph 6 mph 98 % 0 in
00:59 29.5 °F 28.9 °F 30.3 in SSE 3.1 mph 5.8 mph 98 % 0 in
01:09 29.5 °F 28.9 °F 30.3 in SSE 3.4 mph 6.9 mph 98 % 0 in
01:19 29.5 °F 28.9 °F 30.3 in SSE 3.4 mph 5.8 mph 98 % 0 in
01:29 29.5 °F 28.9 °F 30.3 in SSE 3.6 mph 6.5 mph 98 % 0 in
01:39 29.5 °F 28.9 °F 30.3 in SSE 3.1 mph 5.4 mph 98 % 0 in
01:49 29.1 °F 28.8 °F 30.3 in SSE 4 mph 5.6 mph 98 % 0 in
01:59 28.9 °F 28.6 °F 30.3 in SSE 2.5 mph 6.5 mph 98 % 0 in
02:09 28.9 °F 28.6 °F 30.3 in SSE 5.6 mph 6 mph 98 % 0 in
02:19 28.9 °F 28.6 °F 30.3 in SSE 4.3 mph 7.6 mph 98 % 0 in
02:29 28.9 °F 28.6 °F 30.3 in SSE 5.4 mph 6.9 mph 98 % 0 in
02:39 28.8 °F 28.2 °F 30.3 in SSE 3.4 mph 8.1 mph 98 % 0 in
02:49 28.6 °F 28.2 °F 30.2 in SSE 5.4 mph 8.7 mph 98 % 0 in
02:59 28.6 °F 28.2 °F 30.2 in SSE 4.9 mph 7.8 mph 98 % 0 in
03:09 28.6 °F 28.2 °F 30.2 in SSE 4.3 mph 6 mph 98 % 0 in
03:19 28.6 °F 28.2 °F 30.2 in SSE 3.1 mph 6 mph 98 % 0 in
03:29 28.6 °F 28.2 °F 30.2 in SSE 4 mph 6.5 mph 98 % 0 in
03:39 28.6 °F 28.2 °F 30.2 in SSE 5.8 mph 7.6 mph 98 % 0 in
03:49 28.6 °F 28.2 °F 30.2 in SSE 2.5 mph 5.8 mph 98 % 0 in
03:59 28.6 °F 28 °F 30.2 in Calm   6.5 mph 98 % 0 in
04:09 28.6 °F 28 °F 30.2 in SSE 5.4 mph 8.1 mph 98 % 0 in
04:19 28.2 °F 27.9 °F 30.2 in SSE 3.4 mph 7.4 mph 98 % 0 in
04:29 28 °F 27.7 °F 30.2 in SSE 4 mph 8.1 mph 98 % 0 in
04:39 28 °F 27.7 °F 30.2 in SSE 5.8 mph 6.5 mph 98 % 0 in
04:49 28.2 °F 27.9 °F 30.2 in SSE 2.9 mph 5.8 mph 98 % 0 in
04:59 28 °F 27.7 °F 30.2 in SSE 3.6 mph 6.5 mph 98 % 0 in
05:09 28 °F 27.7 °F 30.2 in SSE 4.3 mph 6.3 mph 98 % 0 in
05:19 27.9 °F 27.5 °F 30.2 in SSE 4.3 mph 7.8 mph 98 % 0 in
05:29 27.9 °F 27.5 °F 30.2 in SSE 5.4 mph 6.9 mph 98 % 0 in
05:39 27.9 °F 27.5 °F 30.2 in SSE 4 mph 8.5 mph 98 % 0 in
05:49 27.9 °F 27.5 °F 30.2 in SSE 6.3 mph 8.7 mph 98 % 0 in
05:59 27.9 °F 27.5 °F 30.2 in SSE 5.6 mph 8.7 mph 98 % 0 in
06:09 27.9 °F 27.5 °F 30.2 in SSE 5.4 mph 7.4 mph 98 % 0 in
06:19 27.9 °F 27.5 °F 30.1 in SSE 6.7 mph 6.7 mph 98 % 0 in
06:29 27.9 °F 27.5 °F 30.1 in SSE 3.6 mph 8.5 mph 98 % 0 in
06:39 27.9 °F 27.5 °F 30.1 in SSE 7.8 mph 8.1 mph 98 % 0 in
06:49 27.9 °F 27.5 °F 30.2 in SSE 5.4 mph 7.8 mph 98 % 0 in
06:59 27.9 °F 27.5 °F 30.2 in SSE 5.8 mph 8.5 mph 98 % 0 in
07:09 27.9 °F 27.5 °F 30.2 in SSE 4.9 mph 8.5 mph 98 % 0 in
07:19 27.9 °F 27.5 °F 30.2 in SSE 4.3 mph 9.6 mph 98 % 0 in
07:29 27.9 °F 27.3 °F 30.2 in SSE 3.8 mph 8.5 mph 98 % 0 in
07:39 27.9 °F 27.3 °F 30.1 in SSE 5.8 mph 8.7 mph 98 % 0 in
07:49 27.3 °F 27 °F 30.1 in SSE 2.9 mph 8.5 mph 98 % 0 in
07:59 27.1 °F 26.6 °F 30.1 in SSE 4.3 mph 8.7 mph 98 % 0 in
08:09 27.1 °F 26.6 °F 30.1 in SSE 3.8 mph 8.1 mph 98 % 0 in
08:19 27.1 °F 26.6 °F 30.1 in SSE 5.4 mph 7.6 mph 98 % 0 in
08:29 27.1 °F 26.8 °F 30.1 in SSE 6.5 mph 8.5 mph 98 % 0 in
08:39 27.1 °F 26.6 °F 30.1 in SSE 5.4 mph 9.8 mph 98 % 0 in
08:49 27.1 °F 26.6 °F 30.1 in SSE 7.4 mph 8.1 mph 98 % 0 in
08:59 27.1 °F 26.6 °F 30.1 in SSE 5.6 mph 8.5 mph 98 % 0 in
09:09 27 °F 26.4 °F 30.1 in SSE 7.8 mph 13 mph 98 % 0 in
09:19 27.1 °F 26.6 °F 30.1 in SSE 5.4 mph 8.1 mph 98 % 0 in
09:29 27.1 °F 26.6 °F 30.1 in SSE 4.9 mph 8.5 mph 98 % 0 in
09:39 27.3 °F 27 °F 30.1 in SSE 5.4 mph 8.5 mph 98 % 0 in
09:49 27.7 °F 27.1 °F 30.1 in SSE 7.2 mph 7.8 mph 98 % 0 in
09:59 27.9 °F 27.3 °F 30.1 in SSE 3.1 mph 6.5 mph 98 % 0 in
10:09 27.9 °F 27.5 °F 30.1 in SSE 6.5 mph 8.1 mph 98 % 0 in
10:19 28.2 °F 27.9 °F 30.1 in SSE 4.9 mph 7.6 mph 98 % 0 in
10:29 28.6 °F 28 °F 30.1 in SSE 3.1 mph 7.8 mph 98 % 0 in
10:39 28.6 °F 28.2 °F 30.1 in SSE 7.6 mph 8.7 mph 98 % 0 in
10:49 28.8 °F 28.2 °F 30.1 in SSE 5.6 mph 8.9 mph 98 % 0 in
10:59 28.9 °F 28.6 °F 30.1 in SSE 6 mph 8.1 mph 98 % 0 in
11:09 29.1 °F 28.8 °F 30.1 in SSE 3.8 mph 8.1 mph 98 % 0 in
11:19 29.5 °F 28.9 °F 30.1 in SSE 5.8 mph 7.8 mph 98 % 0 in
11:29 29.7 °F 29.1 °F 30.1 in SSE 4.9 mph 8.1 mph 98 % 0 in
11:39 29.7 °F 29.1 °F 30.1 in SSE 5.8 mph 9.4 mph 98 % 0 in
11:49 29.8 °F 29.5 °F 30.1 in SSE 8.7 mph 8.7 mph 98 % 0 in
11:59 29.8 °F 29.5 °F 30.1 in SSE 2.7 mph 9.6 mph 98 % 0 in
12:09 30 °F 29.7 °F 30.1 in SSE 7.6 mph 8.7 mph 98 % 0 in
12:19 30 °F 29.7 °F 30.1 in SSE 4.9 mph 10.5 mph 98 % 0 in
12:29 30.2 °F 29.7 °F 30.1 in SSE 4 mph 9.8 mph 98 % 0 in
12:39 30.2 °F 29.7 °F 30.1 in SSE 5.6 mph 8.7 mph 98 % 0 in
12:49 30.4 °F 29.8 °F 30 in SSE 8.1 mph 10.7 mph 98 % 0 in
12:59 30.4 °F 29.8 °F 30 in SSE 6.3 mph 10.5 mph 98 % 0 in
13:09 30.6 °F 30 °F 30 in SSE 8.7 mph 11.9 mph 98 % 0 in
13:19 30.9 °F 30.4 °F 30 in SSE 10.3 mph 11 mph 98 % 0 in
13:29 30.9 °F 30.4 °F 30 in SSE 6.3 mph 11.4 mph 98 % 0 in
13:39 31.1 °F 30.6 °F 30 in SSE 4.9 mph 8.7 mph 98 % 0 in
13:49 31.1 °F 30.6 °F 30.1 in SSE 5.6 mph 8.1 mph 98 % 0 in
13:59 31.5 °F 30.9 °F 30.1 in SSE 6.3 mph 9.8 mph 98 % 0 in
14:09 31.5 °F 30.9 °F 30 in SSE 4.7 mph 8.5 mph 98 % 0 in
14:19 31.6 °F 31.1 °F 30 in SSE 3.4 mph 8.1 mph 98 % 0 in
14:29 31.8 °F 31.3 °F 30 in SSE 7.8 mph 8.1 mph 98 % 0 in
14:39 31.8 °F 31.3 °F 30 in SSE 5.8 mph 8.7 mph 98 % 0 in
14:49 32 °F 31.5 °F 30 in SSE 7.4 mph 8.5 mph 98 % 0 in
14:59 32 °F 31.5 °F 30 in SSE 5.8 mph 10.7 mph 98 % 0 in
15:09 32.2 °F 31.6 °F 30 in SSE 9.4 mph 9.4 mph 98 % 0 in
15:19 32.2 °F 31.6 °F 30 in South 6 mph 9.4 mph 98 % 0 in
15:29 32.2 °F 31.6 °F 30 in SW 4.7 mph 8.5 mph 98 % 0 in
15:39 32.2 °F 31.6 °F 30 in South 4 mph 10.1 mph 98 % 0 in
15:49 32.2 °F 31.6 °F 30 in South 4.3 mph 9.4 mph 98 % 0 in
15:59 32.4 °F 31.8 °F 30 in WSW 4.3 mph 9.8 mph 98 % 0 in
16:09 32.4 °F 31.8 °F 30 in SSW 4 mph 7.6 mph 98 % 0 in
16:19 32.5 °F 32 °F 30 in SSW 2.5 mph 8.5 mph 98 % 0 in
16:29 32.5 °F 32 °F 30 in South 3.1 mph 8.5 mph 98 % 0 in
16:39 32.5 °F 32 °F 30 in South 6 mph 8.7 mph 98 % 0 in
16:49 32.5 °F 32 °F 30 in South 7.4 mph 10.7 mph 98 % 0 in
16:59 32.5 °F 32 °F 30 in SSW 5.6 mph 8.7 mph 98 % 0 in
17:09 32.5 °F 32 °F 30 in SSW 4.7 mph 8.1 mph 98 % 0 in
17:19 32.5 °F 32 °F 30 in South 5.4 mph 7.8 mph 98 % 0 in
17:29 32.5 °F 32 °F 30 in South 6 mph 10.1 mph 98 % 0 in
17:39 32.5 °F 32 °F 30 in SSW 4.3 mph 10.3 mph 98 % 0 in
17:49 32.5 °F 32 °F 30 in SSW 5.4 mph 8.5 mph 98 % 0 in
17:59 32.5 °F 32 °F 30 in South 7.8 mph 7.8 mph 98 % 0 in
18:09 32.7 °F 32.2 °F 30 in SSW 4 mph 8.7 mph 98 % 0 in
18:19 32.7 °F 32.2 °F 30 in SSW 6 mph 8.7 mph 98 % 0 in
18:29 32.7 °F 32.2 °F 30 in SSW 6.3 mph 8.5 mph 98 % 0 in
18:39 32.7 °F 32.2 °F 30 in South 6.3 mph 8.9 mph 98 % 0 in
18:49 32.7 °F 32.2 °F 30 in South 7.2 mph 8.9 mph 98 % 0 in
18:59 32.7 °F 32.2 °F 30 in SSW 4 mph 7.6 mph 98 % 0 in
19:09 32.7 °F 32.2 °F 30 in South 9.8 mph 9.8 mph 98 % 0 in
19:19 32.7 °F 32.2 °F 30 in South 5.8 mph 9.8 mph 98 % 0 in
19:29 32.7 °F 32.2 °F 30 in South 6 mph 7.6 mph 98 % 0 in
19:39 32.7 °F 32.2 °F 30.1 in SSW 6.3 mph 9.6 mph 98 % 0 in
19:49 32.7 °F 32.2 °F 30.1 in South 5.4 mph 8.1 mph 98 % 0 in
19:59 32.7 °F 32.2 °F 30.1 in South 3.4 mph 9.6 mph 98 % 0 in
20:09 32.9 °F 32.4 °F 30.1 in SSW 5.6 mph 7.4 mph 98 % 0 in
20:19 32.9 °F 32.4 °F 30.1 in SSW 4.3 mph 8.9 mph 98 % 0 in
20:29 33.1 °F 32.5 °F 30.1 in South 7.4 mph 7.8 mph 98 % 0 in
20:39 33.1 °F 32.5 °F 30.1 in South 4.3 mph 9.8 mph 98 % 0 in
20:49 33.1 °F 32.5 °F 30.1 in SSW 5.6 mph 8.5 mph 98 % 0 in
20:59 33.1 °F 32.5 °F 30.1 in SW 4 mph 8.1 mph 98 % 0 in
21:09 33.3 °F 32.7 °F 30.1 in South 5.4 mph 8.7 mph 98 % 0 in
21:19 33.3 °F 32.7 °F 30.1 in South 4.3 mph 7.4 mph 98 % 0 in
21:29 33.3 °F 32.7 °F 30.1 in South 3.6 mph 8.5 mph 98 % 0 in
21:39 33.3 °F 32.7 °F 30.1 in South 3.6 mph 8.5 mph 98 % 0 in
21:49 33.3 °F 32.7 °F 30.1 in SSW 5.4 mph 6 mph 98 % 0 in
21:59 33.4 °F 32.9 °F 30.1 in SSW 6.3 mph 6.3 mph 98 % 0 in
22:09 33.4 °F 32.9 °F 30.1 in SSW 3.8 mph 7.6 mph 98 % 0 in
22:19 33.4 °F 32.9 °F 30.1 in South 7.4 mph 7.4 mph 98 % 0 in
22:29 33.6 °F 33.1 °F 30.1 in South 4 mph 6.3 mph 98 % 0 in
22:39 33.6 °F 33.1 °F 30.1 in SSW 6.5 mph 6.5 mph 98 % 0 in
22:49 33.6 °F 33.1 °F 30.1 in SSW 3.4 mph 6.5 mph 98 % 0 in
22:59 33.6 °F 33.1 °F 30.1 in SSW 3.4 mph 5.6 mph 98 % 0 in
23:09 33.8 °F 33.3 °F 30.1 in SSW 4.3 mph 6 mph 98 % 0 in
23:19 33.8 °F 33.3 °F 30.1 in South 3.8 mph 7.6 mph 98 % 0 in
23:29 33.8 °F 33.3 °F 30.1 in SW 3.4 mph 6.5 mph 98 % 0 in
23:39 33.8 °F 33.3 °F 30.1 in SSW 3.4 mph 6 mph 98 % 0 in
23:49 33.8 °F 33.3 °F 30.1 in SSW 4.5 mph 6.5 mph 98 % 0 in
23:59 34 °F 33.4 °F 30.1 in SW 4 mph 7.2 mph 98 % 0 in
Le Gheer Warneton
Courtoisie de Weather Underground - 1.5 mb

Mise a jour : 16-12-17 15:52:10
Généré par Cumulus 1.9.4 (1099)